Upperville, New York
Current Conditions -  °F | °C
As of 5:35 AM on Thursday 27 Nov 2014 (Local Time) from KN03 Reporting Station
Light Snow Light Snow  
Wind Chill: 28°   Ceiling: 1300
Heat Index: 28°   Visibility: 4mi
Dew Point: 27°   Wind: 0mph
Humidity: 93%   Direction: NA
Pressure: 29.96"   Gusts: NA
Location:  42.6914°N, 75.6351°W
Report Text: KN03 271035Z AUTO 00000KT 4SM -SN BKN013 OVC036 M02/M03 A2996 RMK AO2
Loading
Personal Weather Stations






























Interactive Weather Map New forecast layout! Learn more

10-Day Weather Forecast

Advertisements
Track Severe Weather on mobile